BTape's sites:

title views votes rating creation
?fad 1,976 29 (3.55)  2010-06-06
?Hermey really doesn't like to make toys 11,018 211 (3.81)  2007-12-28
?homUffculus 6,921 160 (3.33)  2007-11-22
?Milla's Booth is Popular 12,268 233 (3.61)  2007-08-20
?Tom Arnold Lost His Way in the Peruvian Jungle 7,459 226 (3.83)  2007-08-15
?Hum(?x)n 6,488 162 (3.78)  2007-08-08
?happy return 3,110 128 (3.19)  2007-07-09
?PrintScrn 38,707 757 (3.90)  2007-06-29
?Ron Stewart releases the YTMND Flash Roddie-Lo... 4,968 193 (3.75)  2007-06-27
?UNICORx© (Ask your doctor) 5,507 142 (3.61)  2007-06-26
?The Power of Lightning at your Fingertips! 15,261 502 (3.96)  2007-06-18
?How Outback grills their steaks to perfection 5,629 182 (3.18)  2007-06-15
?These are my ACMES! 11,740 324 (4.03)  2007-06-14
?Arnold loves the iPhone's new features 10,041 287 (3.73)  2007-06-11
?Female Cosby on rocketfrancais 1,731 55 (3.82)  2007-06-11
?Special Edition™ 3,421 97 (3.63)  2007-05-30
?Scarlett Flavored Hotty Juice 2,416 68 (3.81)  2007-05-29
?Jed makes Jed dig a hole to find the buried issue of ... 53,439 726 (3.00)  2007-05-25
?Nicolas Cage is persistant 12,489 305 (4.03)  2007-05-21
?Fruit Killer Jack's Assault on Pear 2,939 77 (3.68)  2007-05-16
?How's the pie? 19,862 407 (4.04)  2007-05-09
?Cosby, Über Ninja Turtle 25,065 486 (4.23)  2007-05-05
?cosbydowners 31,427 720 (3.65)  2007-05-02
?True Journey of a YTMND 15,902 400 (3.94)  2007-04-30
?Come D'oh With Me! 10,865 339 (3.88)  2007-04-29
?! Eyeing Breakfast 3,523 134 (3.78)  2007-04-25
?HEY HEY YOU YOU! 14,485 224 (4.00)  2007-04-23
?Dr. McCainlove or: How I Learned to Stop Worryin... 10,472 335 (4.06)  2007-04-20
?Nacho Monk#?!y 2,177 74 (3.82)  2007-04-17
?P1ZZ4 C04ST3R 10,328 250 (3.84)  2007-04-08
?CONTEST: Jed Light District 1,586 43 (3.91)  2007-04-08
?ChArinold's forgot hNOOOOOs (VOTE 5 P... 1,015 73 (3.85)  2007-04-07
?300TMND: CONAN IS... NOT A FEATURE, ... 4,772 223 (3.91)  2007-04-06
?GU3SS WH0'S B4CK 18,675 422 (3.97)  2007-04-03
?TCBCR Raiding 4,601 180 (3.84)  2007-04-03
?NOOOller Coaster: Special Edition (fun times mix) 1,709 51 (3.78)  2007-04-03
?S3CR3T P1ZZ4 M4N 15,808 458 (4.17)  2007-04-01
?Banana Bride 8,253 234 (3.69)  2007-03-31
?Aquelairone 1,121 69 (3.90)  2007-03-31
?(nsfw) FORGOTMND: BUWSH AND CARIE (VO... 1,862 76 (3.88)  2007-03-25
?KANE ROBOT MAKES HIS X91TH COMPUTATI... 1,572 78 (3.83)  2007-03-23
?A LITERAL REPRESENTATION OF YOUR DIGIT... 2,084 113 (3.77)  2007-03-23
?TWINKYTTD~ HE WANTS TO EAT TWINKICY... 2,335 63 (3.94)  2007-03-23
?One Day When You Least Expect It 11,821 363 (4.40)  2007-03-22
?Captain Miller's Lollipop Woes 14,159 399 (4.33)  2007-03-18
?Silence of the Loompas 18,649 462 (4.32)  2007-03-16
?(nsfw) Ghorge Lohan DOESNT care about changin... 5,059 69 (3.91)  2007-03-13
?Fyrestorm is Neo 1,801 82 (3.74)  2007-03-12
?It's YTMND 4,196 184 (3.68)  2007-03-12
?Peter Mourns Uncle Ben's Passing 11,312 353 (4.30)  2007-03-12
?Who Put The Jed? 1,389 48 (3.73)  2007-03-11
?(nsfw) Forgetting Poland: VOTE5 in 30 Frames 4,165 229 (3.83)  2007-03-09
?(nsfw) Beans & Forbreadgot 5,376 103 (3.49)  2007-03-09
?BAAAAAng BAAAAAng On The Door BAAA... 9,753 222 (3.48)  2007-03-07
?Epic Syncan Ree Maneuver Rave 3,806 97 (3.87)  2007-03-06
?Dueling Lennies 17,685 349 (4.00)  2007-03-05
?Dennal Plananza 13,502 370 (4.08)  2007-03-04
?Searching for Bubb Rubb Fischer 8,613 246 (3.79)  2007-03-03
?What You See When You Don't Double Ba... 11,593 387 (3.99)  2007-03-02
?H1S P1ZZ4 L1V3S 0N... 15,703 443 (4.22)  2007-02-22
?P1ZZ4 GUY C4N'T ST0P TH3 P1ZZ4 11,493 376 (4.09)  2007-02-20
?C4N'T BR34K P1ZZ4 GUY'S STR1D... 15,293 433 (4.20)  2007-02-19
?P1ZZ4 P13 P4YB4CK PL4N 19,863 381 (4.24)  2007-02-18
?ARTMND: Classical Renaissance Wizard 2,022 118 (3.94)  2007-02-18
?P1ZZ4 GUY G3T5 D0WN 62,909 908 (4.26)  2007-02-16
?Dax Punk: MOMMMM!!! (Remastered) 26,548 404 (3.98)  2007-02-16
?Westley's Secret 15,249 643 (4.49)  2007-02-15
?Mola Ram's Temple of Love 13,725 357 (4.31)  2007-02-13
?Jed on a Mule in Space 10,168 200 (3.39)  2007-02-11
?Dennis Bergkamp Belts Out a Ball Melter 2,549 85 (3.85)  2007-02-11
?KOENTMND: MATLABspace Compilercide 4,622 182 (4.22)  2007-02-09
?Get Off My YTMND 1,586 102 (3.99)  2007-02-08
?We Didn't Start This Jed-Compilation! (glitche... 1,858 96 (3.93)  2007-02-06
?Oh! Ho! Ho! It's McFly! 23,591 562 (4.32)  2007-02-04
?Daft Jitz ft. McFly 5,380 189 (3.96)  2007-02-04
?The End of McFly 3,024 145 (3.88)  2007-02-03
?Ye Olde Tavern's New Talent 1,257 58 (3.83)  2007-02-02
?(nsfw) Did you notice a sign outside my house? 3,877 95 (4.03)  2007-02-02
?MAI MASHEENZ IN THE FUTURE! 4,715 127 (3.72)  2007-01-31
?LOL, MAI MASHEENZ 1,940 68 (3.82)  2007-01-31
?(nsfw) Cpt. Kirkbush Duglass Forgots Polendaes! (... 2,180 114 (3.82)  2007-01-31
?KOENTMND: Did you notice a sign outside my hou... 4,051 156 (3.88)  2007-01-30
?HNOOOOmer Forgots a Polend by 30 Seconds Mi... 3,995 192 (3.82)  2007-01-26
?KOENTMND: Matlab Bonanza 6,510 123 (4.02)  2007-01-25
?KOENTMND: Dr. Billy V. KHAN 16,423 284 (3.23)  2007-01-25
?The PirAAAAAAAnha Plants take over! 7,808 343 (4.00)  2007-01-25
?BUSHZIE SEES HIS FUTURE ......And it's ... 2,372 109 (3.84)  2007-01-25
?KHANTMND: It's Not KHANusual 2,558 122 (3.84)  2007-01-24
?Ray Liotta gets busted at the stop light and freaks o... 13,222 310 (3.29)  2007-01-23
?Face to Face with Salt 3,887 137 (3.80)  2007-01-23
?404 Beautiful House Not Found 3,053 91 (3.79)  2007-01-23
?Jeds Watch Puppet Show 1,993 79 (3.86)  2007-01-23
?Clocktower Chills! 11,067 439 (3.92)  2007-01-19
?MacGyver vs. PC 2,516 140 (3.65)  2007-01-19
?(nsfw) fuckfish is trapped 3,858 171 (3.84)  2007-01-17
?Dirty Dealings! 8,499 285 (3.83)  2007-01-17
?Who Put The Wrong? 12,577 459 (4.03)  2007-01-15
?KHANTMND: Girls Just Wanna Have Khan 2,871 159 (3.88)  2007-01-15
?Lex Luthor > WOOOOOOOOOO 2,986 133 (3.91)  2007-01-15
?JED BONANZA! 1,925 69 (3.68)  2007-01-14
?(nsfw) BIPFT: The Aftermath 41,108 697 (4.49)  2007-01-12
?(nsfw) But I Pope From There 7,246 98 (3.72)  2007-01-12
?Lex Luthor = church choir 45,640 864 (4.44)  2007-01-10
?(nsfw) But I Forgot Poland From There! 2,881 105 (3.91)  2007-01-10
?D0N'T DR34M 1T 13,170 268 (3.83)  2007-01-09
?Jed sees a burning brush like in the bible 1,327 57 (3.65)  2007-01-09
?Jed Brushes Teeth 1,354 46 (3.65)  2007-01-09
?(nsfw) P1ZZ4 GUY G0N' G1V3 1T T0 Y4 31,164 574 (4.26)  2007-01-07
?F.B.I. 10,224 335 (3.99)  2007-01-07
?R3TURN 0F TH3 P1ZZ4 GUY 9,957 155 (4.16)  2007-01-07
?WH4T 1S P1ZZ4? 9,018 148 (4.03)  2007-01-07
?WH3R3 1S MY P1ZZ4? 9,851 134 (3.95)  2007-01-07
?TH4T P1ZZ4 1S F0R D1SPL4Y PURP0S3S 0NLY... 20,184 201 (4.23)  2007-01-07
?Chunk Addresses Congress 51,720 905 (4.62)  2007-01-07
?(nsfw) But I Poop From There 827,835 1,884 (4.49)  2007-01-07
?Ray Liotta Visits The Jed Lounge (Hit F11) 2,309 107 (3.72)  2007-01-04
?P is For(got) Poland (VOTE % PLZ) 7,544 171 (3.84)  2007-01-02
?It's Too Bad She Won't Live... 19,319 395 (3.67)  2007-01-01
?Mortal Kombat: Kirk vs. Gorn 25,909 509 (4.28)  2006-12-31
?(nsfw) How to Oily *ss F*ck a Telemarketer (pleas... 14,283 323 (2.89)  2006-12-28
?Almost There... 19,641 519 (4.32)  2006-12-25
?Forgotten Polish Christmas Carol (VOTE 5) 8,405 324 (3.51)  2006-12-24
?Bill O'Reilly Attacks Rosie O'Donnell 10,116 209 (3.79)  2006-12-23
?I got Lost and all they gave me was this stupid Fish ... 2,597 71 (3.66)  2006-12-23
?The Jeds Dwell On Life (Classy) 2,220 81 (3.91)  2006-12-20
?HIJACKED BY FUTURE KONANE 16,717 384 (3.47)  2006-12-18
?WHAT HAVE YOU DONE? 1,872 103 (3.58)  2006-12-14
?Did you notice a sign outside my house? 3,611 125 (3.60)  2006-12-14
?(nsfw) Red and White Poland Machine (VOTE 5) 120,122 2,363 (2.98)  2006-12-11
?(nsfw) Verizon Fails at Polish Mathematics (30sec) 4,055 91 (3.88)  2006-12-09
?(nsfw) The Inevitable Return of the Great White Po... 4,377 78 (3.85)  2006-12-01
?(nsfw) Pope Kassius has the Triforce 3,948 94 (3.65)  2006-11-25
?Forgot Poland - The Soundtrack (*VOLUME THIRT... 7,017 251 (3.98)  2006-11-09
?KHANTMND: KHAN knows the code (Updated) 5,622 171 (4.09)  2006-10-26
?Always Something There to Remind Me (VOTE 5) 8,291 280 (4.10)  2006-10-25
?(nsfw) KHANTMND: KHAN works it 2,871 65 (3.83)  2006-10-25
?A kitten ate my keyboard! 6,514 101 (3.83)  2006-10-17
?KHANTMND: A-Ha KHAN 6,296 169 (4.14)  2006-10-16
?KHANTMND: Kirk loves KHANbell peppers! 2,081 99 (3.94)  2006-10-16
?(nsfw) Poland vs. Cherry 6,302 216 (3.78)  2006-10-08
?KHANTMND: KHANbot Rock! 6,198 161 (4.05)  2006-10-08
?BAH da BAH BAH BAH, I'm Lovin&#0... 32,647 809 (4.16)  2006-09-17
?(nsfw) Poland in the Moonlight 2,813 105 (3.94)  2006-09-12
?(nsfw) DEW!!!!!N'T FORGET POLAND! 4,466 156 (4.03)  2006-09-12
?Khanaway Poland 7,318 348 (3.52)  2006-09-10
?Poland has you... 23,508 741 (3.95)  2006-09-05
?YOU ARE NOT MY FATHER!!! (extended edition) 6,084 224 (3.94)  2006-09-01
?(nsfw) Bush Falls. Poland Catches. 9,441 297 (3.76)  2006-08-30
?(nsfw) Kerry Mcfly Forgot Bush's Polend 4,810 152 (3.97)  2006-08-27
?(nsfw) Polend Avenue 2,934 124 (3.98)  2006-08-27
?Relax, don't do it. Miss Poland 2006 6,264 308 (3.88)  2006-08-14
?Poland Puppet! 7,652 308 (4.04)  2006-08-05
?BTape's continuous test site 2,791 106 (4.22)  2006-08-01
?I Can't Spell YTMND 5,483 244 (3.94)  2006-07-21
?(nsfw) A MESSAGE FROM BUSH POLAND VO... 2,731 97 (3.80)  2006-07-16
?Lex > Zidane 9,135 177 (3.89)  2006-07-12
?(nsfw) The Poles Attack Materazzi 6,122 118 (3.95)  2006-07-12
?(nsfw) red poland does the lol 2,939 169 (3.81)  2006-07-12
?YTMND Charades! #2 3,540 84 (3.92)  2006-07-05
?Colbert Maxes Out 29,833 604 (4.04)  2006-07-01
?The True Exciting Eon8 Jed End 2,533 69 (3.87)  2006-06-30
?(nsfw) SHOE ON HEAD FORGOT POLAND AN... 6,301 138 (3.87)  2006-06-22
?Your optical illusion has one weakness... 4,177 99 (3.87)  2006-06-20
?Xenu Attempts Escape 22,207 653 (4.25)  2006-06-13
?NEDM is Unstoppable 5,418 242 (3.34)  2006-05-13
?You're Being Watched 1,731 85 (3.96)  2006-05-07
?blackguard 1,734 75 (3.85)  2006-04-29
?charlatan 2,339 66 (3.77)  2006-04-29
?Data Attempts Epic Maneuver 13,538 155 (3.98)  2006-04-16
?Red Ranger Getaway 10,686 134 (4.01)  2006-04-16
?Hypno-Hands Pets Kitten 7,188 207 (4.07)  2006-04-05
?☺╚╬╩♥╬╩╗☻... 3,672 183 (4.00)  2006-04-03
?Chasing Insulin 11,890 560 (4.20)  2006-04-01
?Hypno-Hands Tells Fortunes 1,766 121 (4.03)  2006-04-01
?Doodlepad Arcades 1,058 121 (3.93)  2006-03-31
?{{([|*****|])}} 1,402 123 (3.76)  2006-03-31
?Doodlepad Experience 1,049 120 (3.94)  2006-03-31
?Office Whiteboards 4,542 127 (3.87)  2006-03-31
?Tour De Rompre 1,533 111 (3.85)  2006-03-31
?(nsfw) The Doodlepad Experience 2,159 116 (3.84)  2006-03-31
?Hypno-Hands Strikes Again 4,582 336 (3.97)  2006-03-31
?Ninjas Beyond Fads 2,230 128 (3.99)  2006-03-31
?Hypno-Hands Watches Family Christmas Videos 4,939 207 (4.01)  2006-03-28
?Peter Griffin Goes To An Arcade 22,319 468 (4.09)  2006-03-28
?The Beatles were Suave 5,509 160 (3.99)  2006-03-22
?PTKFGS: Pirates Are So Original 17,143 339 (3.98)  2006-03-17
?Talk About Obsessive Compulsive 10,184 419 (4.01)  2006-03-15
?Phenomena 5,437 226 (4.04)  2006-03-13
?I Saw the Sun! 1,832 112 (3.98)  2006-03-12
?Smartass Pirate 10,918 290 (4.00)  2006-03-10
?Where's Your Bed At? 2,840 137 (3.96)  2006-03-10
?Hey Java! 4,950 137 (3.95)  2006-03-09
?I Want Your Bed 3,912 105 (3.90)  2006-03-09
?Not Gonna Take It 11,732 435 (4.10)  2006-03-09
?You're Just What I Kneaded 7,105 180 (4.02)  2006-03-09
?Time is Running Out 4,183 143 (3.96)  2006-03-09
?It's Under Pressure 2,401 117 (3.94)  2006-03-08
?Ricola! 4,454 153 (3.84)  2006-03-08
?Cold Hard Bitch 11,596 294 (4.02)  2006-03-08
?Ohno! 3,942 137 (3.87)  2006-03-08
?Secret Agent Kramer 5,629 218 (4.00)  2006-03-07
?Everyday is Groundhog Day 6,118 165 (4.01)  2006-03-01
?I met Batman and I got sent to Arkham Asylum (ed... 18,169 292 (4.06)  2006-02-27